Wetterdaten: Woche 20.10.14 - 26.10.14 (KW43)
Datum Zeit Temp. Aussen +5cm Feuchte Auss Luftdruck Regen Sonnenschein Regendauer Solar Windben
20.10.2014 00:00 15,6 C 13,9 C 84 % 1016,4 hPa 0,0 l/m 0,00 h 0,00 h 0 W/m 23,7 km/h (4 Bft)
20.10.2014 01:00 15,4 C 13,9 C 86 % 1016,3 hPa 0,0 l/m 0,00 h 0,00 h 0 W/m 23,7 km/h (4 Bft)
20.10.2014 02:00 14,9 C 13,1 C 87 % 1016,3 hPa 0,0 l/m 0,00 h 0,00 h 0 W/m 19,0 km/h (3 Bft)
20.10.2014 03:00 14,2 C 12,6 C 89 % 1016,3 hPa 0,0 l/m 0,00 h 0,00 h 0 W/m 15,5 km/h (3 Bft)
20.10.2014 04:00 13,7 C 12,2 C 91 % 1016,2 hPa 0,0 l/m 0,00 h 0,00 h 0 W/m 14,7 km/h (3 Bft)
20.10.2014 05:00 13,3 C 12,2 C 93 % 1016,0 hPa 0,0 l/m 0,00 h 0,00 h 0 W/m 18,7 km/h (3 Bft)
20.10.2014 06:00 13,7 C 12,7 C 93 % 1016,2 hPa 0,0 l/m 0,00 h 0,00 h 0 W/m 20,7 km/h (4 Bft)
20.10.2014 07:00 13,8 C 12,7 C 91 % 1016,3 hPa 0,0 l/m 0,00 h 0,00 h 0 W/m 20,3 km/h (4 Bft)
20.10.2014 08:00 13,8 C 12,5 C 91 % 1016,6 hPa 0,0 l/m 0,00 h 0,00 h 14 W/m 20,5 km/h (4 Bft)
20.10.2014 09:00 13,8 C 12,8 C 91 % 1016,8 hPa 0,0 l/m 0,00 h 0,00 h 52 W/m 20,7 km/h (4 Bft)
20.10.2014 10:00 14,3 C 13,5 C 90 % 1017,0 hPa 0,0 l/m 0,00 h 0,00 h 63 W/m 19,8 km/h (3 Bft)
20.10.2014 11:00 14,7 C 13,8 C 89 % 1017,2 hPa 0,0 l/m 0,00 h 0,00 h 103 W/m 22,1 km/h (4 Bft)
20.10.2014 12:00 15,7 C 14,9 C 85 % 1017,2 hPa 0,0 l/m 0,30 h 0,00 h 244 W/m 22,9 km/h (4 Bft)
20.10.2014 13:00 16,8 C 15,8 C 81 % 1017,0 hPa 0,0 l/m 0,63 h 0,00 h 345 W/m 23,4 km/h (4 Bft)
20.10.2014 14:00 17,3 C 15,9 C 78 % 1016,5 hPa 0,0 l/m 0,60 h 0,00 h 266 W/m 21,4 km/h (4 Bft)
20.10.2014 15:00 17,9 C 15,9 C 75 % 1016,1 hPa 0,0 l/m 0,97 h 0,00 h 337 W/m 20,3 km/h (4 Bft)
20.10.2014 16:00 17,5 C 15,1 C 74 % 1015,5 hPa 0,0 l/m 0,57 h 0,00 h 154 W/m 18,8 km/h (3 Bft)
20.10.2014 17:00 16,5 C 14,6 C 78 % 1015,0 hPa 0,0 l/m 0,40 h 0,00 h 78 W/m 15,2 km/h (3 Bft)
20.10.2014 18:00 15,5 C 13,4 C 82 % 1014,7 hPa 0,0 l/m 0,00 h 0,00 h 12 W/m 10,6 km/h (2 Bft)
20.10.2014 19:00 14,6 C 12,6 C 86 % 1014,8 hPa 1,4 l/m 0,00 h 0,30 h 0 W/m 15,0 km/h (3 Bft)
20.10.2014 20:00 13,8 C 11,6 C 91 % 1014,5 hPa 0,0 l/m 0,00 h 0,00 h 0 W/m 9,1 km/h (2 Bft)
20.10.2014 21:00 13,2 C 11,7 C 93 % 1014,4 hPa 0,0 l/m 0,00 h 0,13 h 0 W/m 14,0 km/h (3 Bft)
20.10.2014 22:00 13,1 C 11,4 C 95 % 1014,2 hPa 0,2 l/m 0,00 h 0,17 h 0 W/m 13,1 km/h (3 Bft)
20.10.2014 23:00 12,5 C 10,8 C 95 % 1013,8 hPa 0,0 l/m 0,00 h 0,00 h 0 W/m 13,5 km/h (3 Bft)
21.10.2014 00:00 12,0 C 10,5 C 95 % 1013,4 hPa 0,0 l/m 0,00 h 0,00 h 0 W/m 15,8 km/h (3 Bft)
21.10.2014 01:00 11,6 C 10,0 C 95 % 1013,0 hPa 0,0 l/m 0,00 h 0,00 h 0 W/m 15,3 km/h (3 Bft)
21.10.2014 02:00 11,4 C 10,0 C 95 % 1012,6 hPa 0,0 l/m 0,00 h 0,00 h 0 W/m 15,6 km/h (3 Bft)
21.10.2014 03:00 11,2 C 10,0 C 95 % 1012,1 hPa 0,0 l/m 0,00 h 0,00 h 0 W/m 16,6 km/h (3 Bft)
21.10.2014 04:00 11,2 C 10,0 C 95 % 1011,3 hPa 0,2 l/m 0,00 h 0,10 h 0 W/m 14,0 km/h (3 Bft)
21.10.2014 05:00 11,3 C 10,4 C 95 % 1010,2 hPa 0,0 l/m 0,00 h 0,00 h 0 W/m 16,5 km/h (3 Bft)
21.10.2014 06:00 11,7 C 10,7 C 95 % 1009,5 hPa 0,0 l/m 0,00 h 0,00 h 0 W/m 17,0 km/h (3 Bft)
21.10.2014 07:00 12,0 C 11,1 C 94 % 1008,7 hPa 0,0 l/m 0,00 h 0,00 h 0 W/m 19,7 km/h (3 Bft)
21.10.2014 08:00 12,1 C 11,1 C 91 % 1008,2 hPa 0,0 l/m 0,00 h 0,00 h 11 W/m 21,2 km/h (4 Bft)
21.10.2014 09:00 12,3 C 11,1 C 88 % 1007,6 hPa 0,0 l/m 0,00 h 0,17 h 34 W/m 22,0 km/h (4 Bft)
21.10.2014 10:00 12,9 C 11,7 C 87 % 1006,1 hPa 0,0 l/m 0,13 h 0,13 h 110 W/m 27,3 km/h (4 Bft)
21.10.2014 11:00 13,5 C 12,5 C 85 % 1004,9 hPa 0,0 l/m 0,07 h 0,03 h 137 W/m 32,9 km/h (5 Bft)
21.10.2014 12:00 12,8 C 10,6 C 89 % 1003,9 hPa 1,4 l/m 0,00 h 0,95 h 78 W/m 30,1 km/h (5 Bft)
21.10.2014 13:00 12,1 C 10,6 C 94 % 1002,0 hPa 0,0 l/m 0,00 h 0,30 h 76 W/m 30,2 km/h (5 Bft)
21.10.2014 14:00 12,7 C 11,1 C 93 % 1000,5 hPa 0,6 l/m 0,00 h 0,40 h 71 W/m 32,6 km/h (5 Bft)
21.10.2014 15:00 13,0 C 11,3 C 94 % 999,0 hPa 1,4 l/m 0,00 h 0,90 h 55 W/m 36,8 km/h (5 Bft)
21.10.2014 16:00 12,1 C 10,4 C 94 % 999,7 hPa 1,2 l/m 0,07 h 0,57 h 58 W/m 34,2 km/h (5 Bft)
21.10.2014 17:00 11,2 C 9,8 C 94 % 1001,3 hPa 0,0 l/m 0,00 h 0,10 h 40 W/m 23,8 km/h (4 Bft)
21.10.2014 18:00 10,0 C 8,1 C 91 % 1002,5 hPa 2,0 l/m 0,00 h 0,53 h 12 W/m 33,5 km/h (5 Bft)
21.10.2014 19:00 8,6 C 7,2 C 92 % 1003,8 hPa 0,4 l/m 0,00 h 0,17 h 0 W/m 24,1 km/h (4 Bft)
21.10.2014 20:00 8,6 C 7,1 C 93 % 1004,8 hPa 0,0 l/m 0,00 h 0,37 h 0 W/m 25,5 km/h (4 Bft)
21.10.2014 21:00 8,2 C 6,6 C 91 % 1005,7 hPa 2,4 l/m 0,00 h 1,00 h 0 W/m 26,6 km/h (4 Bft)
21.10.2014 22:00 7,6 C 6,1 C 93 % 1007,4 hPa 2,0 l/m 0,00 h 1,00 h 0 W/m 21,3 km/h (4 Bft)
21.10.2014 23:00 6,7 C 5,6 C 94 % 1008,7 hPa 0,4 l/m 0,00 h 0,00 h 0 W/m 13,5 km/h (3 Bft)
22.10.2014 00:00 6,9 C 6,1 C 96 % 1010,2 hPa 0,8 l/m 0,00 h 0,00 h 0 W/m 17,8 km/h (3 Bft)
22.10.2014 01:00 6,8 C 5,7 C 96 % 1011,1 hPa 0,0 l/m 0,00 h 0,00 h 0 W/m 22,8 km/h (4 Bft)
22.10.2014 02:00 6,9 C 5,8 C 96 % 1012,0 hPa 0,4 l/m 0,00 h 0,00 h 0 W/m 27,5 km/h (4 Bft)
22.10.2014 03:00 6,7 C 5,6 C 96 % 1012,3 hPa 0,0 l/m 0,00 h 0,00 h 0 W/m 22,5 km/h (4 Bft)
22.10.2014 04:00 6,4 C 5,2 C 96 % 1012,7 hPa 0,0 l/m 0,00 h 0,00 h 0 W/m 24,1 km/h (4 Bft)
22.10.2014 05:00 6,7 C 5,6 C 95 % 1013,4 hPa 0,0 l/m 0,00 h 0,00 h 0 W/m 23,1 km/h (4 Bft)
22.10.2014 06:00 6,8 C 5,6 C 94 % 1013,9 hPa 0,0 l/m 0,00 h 0,00 h 0 W/m 26,3 km/h (4 Bft)
22.10.2014 07:00 6,8 C 5,7 C 94 % 1014,6 hPa 0,0 l/m 0,00 h 0,00 h 0 W/m 25,2 km/h (4 Bft)
22.10.2014 08:00 6,9 C 5,6 C 94 % 1015,6 hPa 0,8 l/m 0,00 h 0,00 h 9 W/m 25,3 km/h (4 Bft)
22.10.2014 09:00 6,9 C 6,1 C 96 % 1016,4 hPa 0,2 l/m 0,00 h 0,00 h 39 W/m 20,0 km/h (4 Bft)
22.10.2014 10:00 7,4 C 6,7 C 96 % 1017,0 hPa 0,2 l/m 0,00 h 0,00 h 86 W/m 21,9 km/h (4 Bft)
22.10.2014 11:00 8,3 C 7,3 C 96 % 1017,4 hPa 0,0 l/m 0,17 h 0,00 h 165 W/m 24,8 km/h (4 Bft)
22.10.2014 12:00 9,2 C 8,2 C 94 % 1018,0 hPa 0,2 l/m 0,20 h 0,00 h 218 W/m 25,7 km/h (4 Bft)
22.10.2014 13:00 10,8 C 9,4 C 89 % 1017,8 hPa 0,0 l/m 0,73 h 0,00 h 389 W/m 30,1 km/h (5 Bft)
22.10.2014 14:00 12,1 C 10,4 C 84 % 1018,1 hPa 0,0 l/m 0,77 h 0,00 h 354 W/m 28,7 km/h (4 Bft)
22.10.2014 15:00 12,8 C 10,4 C 79 % 1018,4 hPa 0,0 l/m 0,57 h 0,00 h 267 W/m 34,4 km/h (5 Bft)
22.10.2014 16:00 11,3 C 9,6 C 84 % 1018,7 hPa 0,0 l/m 0,60 h 0,00 h 165 W/m 23,1 km/h (4 Bft)
22.10.2014 17:00 11,7 C 10,2 C 84 % 1019,3 hPa 0,0 l/m 0,07 h 0,00 h 54 W/m 20,5 km/h (4 Bft)
22.10.2014 18:00 10,5 C 8,8 C 85 % 1019,8 hPa 0,0 l/m 0,13 h 0,00 h 13 W/m 18,5 km/h (3 Bft)
22.10.2014 19:00 9,9 C 8,5 C 87 % 1020,4 hPa 0,0 l/m 0,00 h 0,00 h 0 W/m 15,1 km/h (3 Bft)
22.10.2014 20:00 9,7 C 8,3 C 89 % 1021,0 hPa 0,0 l/m 0,00 h 0,00 h 0 W/m 12,0 km/h (2 Bft)
22.10.2014 21:00 9,5 C 8,3 C 90 % 1021,5 hPa 0,0 l/m 0,00 h 0,00 h 0 W/m 9,5 km/h (2 Bft)
22.10.2014 22:00 9,2 C 7,7 C 91 % 1021,9 hPa 0,0 l/m 0,00 h 0,00 h 0 W/m 8,5 km/h (2 Bft)
22.10.2014 23:00 9,0 C 8,2 C 92 % 1022,0 hPa 0,0 l/m 0,00 h 0,00 h 0 W/m 7,5 km/h (2 Bft)
23.10.2014 00:00 9,2 C 8,0 C 92 % 1022,2 hPa 0,0 l/m 0,00 h 0,00 h 0 W/m 8,3 km/h (2 Bft)
23.10.2014 01:00 8,5 C 6,9 C 92 % 1022,2 hPa 0,0 l/m 0,00 h 0,00 h 0 W/m 8,5 km/h (2 Bft)
23.10.2014 02:00 8,3 C 7,5 C 93 % 1022,6 hPa 0,0 l/m 0,00 h 0,00 h 0 W/m 11,7 km/h (2 Bft)
23.10.2014 03:00 8,6 C 7,8 C 94 % 1022,6 hPa 0,0 l/m 0,00 h 0,00 h 0 W/m 7,1 km/h (2 Bft)
23.10.2014 04:00 8,7 C 7,9 C 94 % 1022,3 hPa 0,0 l/m 0,00 h 0,00 h 0 W/m 9,1 km/h (2 Bft)
23.10.2014 05:00 8,9 C 8,2 C 94 % 1022,0 hPa 0,0 l/m 0,00 h 0,00 h 0 W/m 9,0 km/h (2 Bft)
23.10.2014 06:00 8,9 C 8,0 C 94 % 1022,0 hPa 0,0 l/m 0,00 h 0,00 h 0 W/m 6,2 km/h (2 Bft)
23.10.2014 07:00 8,9 C 8,0 C 94 % 1022,3 hPa 0,0 l/m 0,00 h 0,00 h 0 W/m 5,6 km/h (1 Bft)
23.10.2014 08:00 9,1 C 8,5 C 94 % 1022,8 hPa 0,0 l/m 0,17 h 0,00 h 21 W/m 10,1 km/h (2 Bft)
23.10.2014 09:00 9,7 C 9,5 C 94 % 1023,0 hPa 0,0 l/m 0,53 h 0,00 h 97 W/m 11,9 km/h (2 Bft)
23.10.2014 10:00 10,6 C 10,1 C 91 % 1023,3 hPa 0,0 l/m 0,00 h 0,00 h 101 W/m 13,1 km/h (3 Bft)
23.10.2014 11:00 11,2 C 10,7 C 88 % 1023,5 hPa 0,0 l/m 0,00 h 0,00 h 124 W/m 14,9 km/h (3 Bft)
23.10.2014 12:00 11,9 C 11,6 C 87 % 1023,5 hPa 0,0 l/m 0,00 h 0,00 h 181 W/m 15,1 km/h (3 Bft)
23.10.2014 13:00 12,7 C 12,4 C 86 % 1023,2 hPa 0,0 l/m 0,23 h 0,00 h 215 W/m 17,1 km/h (3 Bft)
23.10.2014 14:00 13,5 C 12,8 C 84 % 1022,7 hPa 0,0 l/m 0,30 h 0,00 h 242 W/m 18,1 km/h (3 Bft)
23.10.2014 15:00 15,1 C 14,0 C 79 % 1022,4 hPa 0,0 l/m 0,90 h 0,00 h 338 W/m 19,2 km/h (3 Bft)
23.10.2014 16:00 14,7 C 13,1 C 79 % 1022,5 hPa 0,0 l/m 0,00 h 0,00 h 111 W/m 14,2 km/h (3 Bft)
23.10.2014 17:00 13,6 C 12,0 C 83 % 1022,1 hPa 0,0 l/m 0,00 h 0,00 h 26 W/m 13,7 km/h (3 Bft)
23.10.2014 18:00 13,0 C 11,6 C 85 % 1021,9 hPa 0,0 l/m 0,00 h 0,00 h 7 W/m 12,0 km/h (2 Bft)
23.10.2014 19:00 12,7 C 11,1 C 86 % 1022,0 hPa 0,0 l/m 0,00 h 0,00 h 0 W/m 11,7 km/h (2 Bft)
23.10.2014 20:00 12,5 C 11,1 C 87 % 1022,1 hPa 0,0 l/m 0,00 h 0,00 h 0 W/m 12,6 km/h (3 Bft)
23.10.2014 21:00 12,3 C 11,1 C 88 % 1022,3 hPa 0,0 l/m 0,00 h 0,00 h 0 W/m 11,9 km/h (2 Bft)
23.10.2014 22:00 12,1 C 10,8 C 89 % 1022,5 hPa 0,0 l/m 0,00 h 0,00 h 0 W/m 11,3 km/h (2 Bft)
23.10.2014 23:00 11,9 C 10,6 C 89 % 1022,3 hPa 0,0 l/m 0,00 h 0,00 h 0 W/m 12,9 km/h (3 Bft)
24.10.2014 00:00 11,6 C 10,6 C 89 % 1022,0 hPa 0,0 l/m 0,00 h 0,00 h 0 W/m 14,1 km/h (3 Bft)
24.10.2014 01:00 11,6 C 10,6 C 89 % 1021,9 hPa 0,0 l/m 0,00 h 0,00 h 0 W/m 11,0 km/h (2 Bft)
24.10.2014 02:00 11,6 C 10,6 C 89 % 1021,5 hPa 0,0 l/m 0,00 h 0,00 h 0 W/m 12,6 km/h (3 Bft)
24.10.2014 03:00 11,6 C 10,6 C 88 % 1021,3 hPa 0,0 l/m 0,00 h 0,00 h 0 W/m 12,6 km/h (3 Bft)
24.10.2014 04:00 11,6 C 10,6 C 87 % 1021,1 hPa 0,0 l/m 0,00 h 0,00 h 0 W/m 12,8 km/h (3 Bft)
24.10.2014 05:00 11,5 C 10,1 C 88 % 1021,0 hPa 0,0 l/m 0,00 h 0,00 h 0 W/m 11,9 km/h (2 Bft)
24.10.2014 06:00 11,3 C 10,1 C 88 % 1020,9 hPa 0,0 l/m 0,00 h 0,00 h 0 W/m 14,5 km/h (3 Bft)
24.10.2014 07:00 11,4 C 10,0 C 88 % 1020,6 hPa 0,0 l/m 0,00 h 0,00 h 0 W/m 16,0 km/h (3 Bft)
24.10.2014 08:00 10,9 C 9,2 C 89 % 1020,7 hPa 0,0 l/m 0,00 h 0,00 h 16 W/m 11,9 km/h (2 Bft)
24.10.2014 09:00 10,8 C 10,3 C 91 % 1020,7 hPa 0,0 l/m 0,57 h 0,00 h 128 W/m 14,9 km/h (3 Bft)
24.10.2014 10:00 11,9 C 11,2 C 88 % 1020,8 hPa 0,0 l/m 0,00 h 0,00 h 103 W/m 16,1 km/h (3 Bft)
24.10.2014 11:00 12,5 C 11,9 C 85 % 1020,7 hPa 0,0 l/m 0,00 h 0,00 h 143 W/m 14,6 km/h (3 Bft)
24.10.2014 12:00 13,2 C 12,7 C 80 % 1020,4 hPa 0,0 l/m 0,07 h 0,00 h 211 W/m 17,0 km/h (3 Bft)
24.10.2014 13:00 13,6 C 12,8 C 78 % 1019,7 hPa 0,0 l/m 0,00 h 0,00 h 192 W/m 20,2 km/h (4 Bft)
24.10.2014 14:00 13,9 C 13,2 C 79 % 1019,3 hPa 0,0 l/m 0,00 h 0,00 h 162 W/m 18,2 km/h (3 Bft)
24.10.2014 15:00 13,7 C 12,7 C 80 % 1018,7 hPa 0,0 l/m 0,00 h 0,00 h 103 W/m 18,0 km/h (3 Bft)
24.10.2014 16:00 13,6 C 12,6 C 81 % 1018,3 hPa 0,0 l/m 0,00 h 0,00 h 77 W/m 16,5 km/h (3 Bft)
24.10.2014 17:00 13,4 C 12,1 C 82 % 1017,9 hPa 0,0 l/m 0,00 h 0,00 h 34 W/m 14,4 km/h (3 Bft)
24.10.2014 18:00 13,1 C 11,6 C 83 % 1017,5 hPa 0,0 l/m 0,00 h 0,00 h 7 W/m 11,7 km/h (2 Bft)
24.10.2014 19:00 12,7 C 11,1 C 85 % 1017,5 hPa 0,0 l/m 0,00 h 0,00 h 0 W/m 11,0 km/h (2 Bft)
24.10.2014 20:00 12,3 C 10,8 C 86 % 1017,5 hPa 0,0 l/m 0,00 h 0,00 h 0 W/m 9,9 km/h (2 Bft)
24.10.2014 21:00 12,1 C 9,9 C 87 % 1017,4 hPa 0,0 l/m 0,00 h 0,00 h 0 W/m 8,8 km/h (2 Bft)
24.10.2014 22:00 11,7 C 10,2 C 89 % 1017,6 hPa 0,0 l/m 0,00 h 0,00 h 0 W/m 9,7 km/h (2 Bft)
24.10.2014 23:00 11,5 C 10,3 C 89 % 1017,5 hPa 0,0 l/m 0,00 h 0,00 h 0 W/m 9,9 km/h (2 Bft)
25.10.2014 00:00 11,3 C 10,0 C 89 % 1017,3 hPa 0,0 l/m 0,00 h 0,00 h 0 W/m 9,1 km/h (2 Bft)
25.10.2014 01:00 11,3 C 9,6 C 90 % 1017,3 hPa 0,4 l/m 0,00 h 0,00 h 0 W/m 9,4 km/h (2 Bft)
25.10.2014 02:00 11,0 C 9,4 C 93 % 1017,1 hPa 0,6 l/m 0,00 h 0,00 h 0 W/m 10,5 km/h (2 Bft)
25.10.2014 03:00 10,8 C 9,4 C 95 % 1016,8 hPa 0,0 l/m 0,00 h 0,00 h 0 W/m 11,0 km/h (2 Bft)
25.10.2014 04:00 10,7 C 9,4 C 96 % 1016,6 hPa 0,0 l/m 0,00 h 0,00 h 0 W/m 11,0 km/h (2 Bft)
25.10.2014 05:00 10,8 C 9,8 C 97 % 1016,8 hPa 0,0 l/m 0,00 h 0,00 h 0 W/m 9,0 km/h (2 Bft)
25.10.2014 06:00 11,1 C 10,0 C 97 % 1016,8 hPa 0,0 l/m 0,00 h 0,00 h 0 W/m 9,6 km/h (2 Bft)
25.10.2014 07:00 11,3 C 10,0 C 97 % 1017,1 hPa 0,0 l/m 0,00 h 0,00 h 0 W/m 9,2 km/h (2 Bft)
25.10.2014 08:00 11,5 C 10,6 C 98 % 1017,6 hPa 0,0 l/m 0,00 h 0,00 h 8 W/m 9,6 km/h (2 Bft)
25.10.2014 09:00 11,7 C 10,7 C 98 % 1018,0 hPa 0,0 l/m 0,00 h 0,00 h 24 W/m 8,9 km/h (2 Bft)
25.10.2014 10:00 12,1 C 11,2 C 98 % 1018,4 hPa 0,0 l/m 0,00 h 0,00 h 44 W/m 9,0 km/h (2 Bft)
25.10.2014 11:00 12,4 C 11,7 C 98 % 1018,8 hPa 0,0 l/m 0,00 h 0,00 h 42 W/m 6,7 km/h (2 Bft)
25.10.2014 12:00 12,9 C 12,0 C 98 % 1019,0 hPa 0,2 l/m 0,00 h 0,27 h 76 W/m 9,2 km/h (2 Bft)
25.10.2014 13:00 13,1 C 12,4 C 98 % 1019,0 hPa 0,0 l/m 0,00 h 0,30 h 96 W/m 13,2 km/h (3 Bft)
25.10.2014 14:00 13,5 C 12,7 C 97 % 1019,0 hPa 0,0 l/m 0,00 h 0,33 h 93 W/m 10,5 km/h (2 Bft)
25.10.2014 15:00 13,8 C 12,3 C 96 % 1019,3 hPa 0,6 l/m 0,00 h 0,57 h 52 W/m 8,7 km/h (2 Bft)
25.10.2014 16:00 13,9 C 12,4 C 96 % 1019,5 hPa 0,0 l/m 0,00 h 0,00 h 41 W/m 6,4 km/h (2 Bft)
25.10.2014 17:00 13,8 C 12,2 C 96 % 1019,7 hPa 0,4 l/m 0,00 h 0,43 h 13 W/m 8,4 km/h (2 Bft)
25.10.2014 18:00 13,5 C 12,0 C 97 % 1020,0 hPa 0,0 l/m 0,00 h 0,98 h 5 W/m 7,8 km/h (2 Bft)
25.10.2014 19:00 13,2 C 11,7 C 97 % 1020,7 hPa 0,2 l/m 0,00 h 0,87 h 0 W/m 11,9 km/h (2 Bft)
25.10.2014 20:00 11,9 C 10,2 C 96 % 1021,3 hPa 0,0 l/m 0,00 h 1,00 h 0 W/m 9,0 km/h (2 Bft)
25.10.2014 21:00 11,3 C 9,3 C 95 % 1021,7 hPa 0,0 l/m 0,00 h 1,00 h 0 W/m 5,3 km/h (1 Bft)
25.10.2014 22:00 10,4 C 7,9 C 94 % 1022,3 hPa 0,0 l/m 0,00 h 1,00 h 0 W/m 6,0 km/h (2 Bft)
25.10.2014 23:00 9,3 C 7,2 C 94 % 1022,5 hPa 0,0 l/m 0,00 h 1,00 h 0 W/m 7,0 km/h (2 Bft)
26.10.2014 00:00 8,8 C 7,3 C 95 % 1023,0 hPa 0,0 l/m 0,00 h 0,97 h 0 W/m 5,6 km/h (1 Bft)
26.10.2014 01:00 8,7 C 7,4 C 96 % 1023,2 hPa 0,0 l/m 0,00 h 1,00 h 0 W/m 4,9 km/h (1 Bft)
26.10.2014 02:00 9,4 C 8,7 C 97 % 1023,3 hPa 0,0 l/m 0,00 h 1,97 h 0 W/m 7,3 km/h (2 Bft)
26.10.2014 03:00 10,6 C 9,4 C 98 % 1023,5 hPa 0,0 l/m 0,00 h 0,00 h 0 W/m 10,3 km/h (2 Bft)
26.10.2014 04:00 10,8 C 9,6 C 98 % 1023,7 hPa 0,0 l/m 0,00 h 0,00 h 0 W/m 10,8 km/h (2 Bft)
26.10.2014 05:00 10,7 C 9,4 C 98 % 1024,0 hPa 0,0 l/m 0,00 h 0,00 h 0 W/m 9,6 km/h (2 Bft)
26.10.2014 06:00 10,6 C 9,4 C 98 % 1024,0 hPa 0,0 l/m 0,00 h 0,00 h 0 W/m 10,7 km/h (2 Bft)
26.10.2014 07:00 10,6 C 9,4 C 97 % 1024,3 hPa 0,0 l/m 0,00 h 0,00 h 12 W/m 9,3 km/h (2 Bft)
26.10.2014 08:00 11,0 C 9,9 C 96 % 1024,8 hPa 0,0 l/m 0,00 h 0,00 h 30 W/m 10,3 km/h (2 Bft)
26.10.2014 09:00 11,6 C 10,7 C 94 % 1025,1 hPa 0,0 l/m 0,00 h 0,00 h 62 W/m 8,0 km/h (2 Bft)
26.10.2014 10:00 12,5 C 11,9 C 92 % 1025,2 hPa 0,0 l/m 0,03 h 0,00 h 127 W/m 11,0 km/h (2 Bft)
26.10.2014 11:00 14,2 C 13,5 C 87 % 1024,9 hPa 0,0 l/m 0,60 h 0,03 h 270 W/m 15,8 km/h (3 Bft)
26.10.2014 12:00 16,1 C 14,6 C 77 % 1024,6 hPa 0,0 l/m 0,82 h 0,00 h 341 W/m 15,9 km/h (3 Bft)
26.10.2014 13:00 16,5 C 15,0 C 71 % 1024,5 hPa 0,0 l/m 0,27 h 0,00 h 242 W/m 13,8 km/h (3 Bft)
26.10.2014 14:00 16,6 C 15,0 C 72 % 1024,3 hPa 0,0 l/m 0,20 h 0,00 h 148 W/m 9,8 km/h (2 Bft)
26.10.2014 15:00 16,5 C 14,2 C 71 % 1023,9 hPa 0,0 l/m 0,60 h 0,00 h 135 W/m 9,7 km/h (2 Bft)
26.10.2014 16:00 16,0 C 13,0 C 74 % 1024,0 hPa 0,0 l/m 0,20 h 0,00 h 56 W/m 4,3 km/h (1 Bft)
26.10.2014 17:00 14,9 C 11,9 C 81 % 1023,9 hPa 0,0 l/m 0,00 h 0,00 h 8 W/m 5,7 km/h (1 Bft)
26.10.2014 18:00 14,0 C 12,2 C 85 % 1024,0 hPa 0,0 l/m 0,00 h 0,00 h 0 W/m 7,3 km/h (2 Bft)
26.10.2014 19:00 13,5 C 11,8 C 86 % 1023,9 hPa 0,0 l/m 0,00 h 0,00 h 0 W/m 8,5 km/h (2 Bft)
26.10.2014 20:00 13,0 C 10,9 C 87 % 1024,1 hPa 0,0 l/m 0,00 h 0,00 h 0 W/m 9,9 km/h (2 Bft)
26.10.2014 21:00 12,3 C 10,3 C 89 % 1024,5 hPa 0,0 l/m 0,00 h 0,00 h 0 W/m 10,1 km/h (2 Bft)
26.10.2014 22:00 11,6 C 9,4 C 90 % 1024,6 hPa 0,0 l/m 0,00 h 0,00 h 0 W/m 8,5 km/h (2 Bft)
26.10.2014 23:00 11,1 C 9,8 C 92 % 1024,7 hPa 0,0 l/m 0,00 h 0,00 h 0 W/m 5,1 km/h (1 Bft)
Min-Datum _ 22.10.14 21.10.14 26.10.14 21.10.14 - - - - 23.10.14
_ Min-Zeit 04:08 22:46 13:10 15:46 - - - - 03:34
Minimum _ 6,4 C 4,4 C 68 % 998,4 hPa - - - - 2,1 km/h (1 Bft)
Max-Datum _ 20.10.14 20.10.14 25.10.14 26.10.14 21.10.14 20.10.14 20.10.14 20.10.14 21.10.14
_ Max-Zeit 15:54 13:32 07:38 10:08 21:36 12:16 19:36 13:40 18:30
Maximum _ 18,3 C 16,7 C 98 % 1025,2 hPa 2,4 l/m 0,03 h 0,03 h 647 W/m 66,9 km/h
W-SW (8 Bft)
Durchschnitt _ 11,8 C 10,5 C 90 % 1017,8 hPa #18,6 l/m #12:27 h #19:06 h 113 W/m 15,3 km/h (3 Bft)
© 2014 W. Hausmann